Kamloops Airport
CYKA : rendu visible

Aérodrome :











RETROUVEZ-NOUS SUR...

 
LOGIN :

S'inscrire | Disclaimer

   EN    FR    IT 

 









Légende :    VFR   VFR Marginal   IFR   IFR Intensif   IFR Très Intensif
Visi : 
Plafond : 
>= 8 km
>= 3000ft
5 à 8 km
1000 à 3000 ft
1500m à 5 km
500 à 1000 ft
800 à 1500m
200 à 500 ft
< 800m
< 200 ft
Symboles :   Orages  Brouillard  Fortes neiges  Fortes précipitations  Vent > 20 kt






- Altitude de l'aérodrome : 1133 ft
- Code IATA : YKA


CYKA - Kamloops

DERNIER METAR :
  • 211500Z 08006KT 030V090 40SM FEW150 BKN260 M03/M07 A3016 RMK AC2CI4 SLP236

METARs EXPIRÉS :
  • 211400Z 13007KT 40SM SCT150 BKN260 M02/M06 A3016 RMK AC4CI2 SLP234
  • 211300Z 09006KT 40SM FEW150 SCT260 M03/M08 A3017 RMK AC1CI3 SLP235

TAF TAF CYKA
Valide du 21 à 13h jusqu'au 22 à 01h UTC


211238Z 2113/2201 08007KT P6SM SCT240
FM211800 10010KT P6SM BKN120 RMK NXT FCST BY 211900Z



MET'MAP, la Météo Aéronautique d'un coup d'oeil ! - Copyright ORBIFLY Décembre 2007 - Disclaimer

ORBIFLY MET'MAP TEAM :

Programmation & Développement : Alexandra Zaïnal
Sur une idée originale de : Baudouin d'Aumeries
Assistance à la programmation : Marc-Olivier Méhu
Soutien technique & logistique : Manuel Goepfert

Contact : metmap@orbifly.com




SOURCES & CREDITS :

   NOAA       Earth
Advisory